sensor_id;sensor_type;location;lat;lon;timestamp;P1;durP1;ratioP1;P2;durP2;ratioP2
46391;SDS011;32098;49.448;7.904;2023-06-26T00:01:03;7.30;;;6.28;;
46391;SDS011;32098;49.448;7.904;2023-06-26T00:03:31;8.75;;;7.50;;
46391;SDS011;32098;49.448;7.904;2023-06-26T00:05:59;7.53;;;6.72;;
46391;SDS011;32098;49.448;7.904;2023-06-26T00:08:27;8.25;;;7.18;;
46391;SDS011;32098;49.448;7.904;2023-06-26T00:10:54;7.43;;;6.57;;
46391;SDS011;32098;49.448;7.904;2023-06-26T00:13:23;7.82;;;6.22;;
46391;SDS011;32098;49.448;7.904;2023-06-26T00:15:50;7.43;;;6.40;;
46391;SDS011;32098;49.448;7.904;2023-06-26T00:18:17;7.03;;;6.32;;
46391;SDS011;32098;49.448;7.904;2023-06-26T00:20:43;8.10;;;7.05;;
46391;SDS011;32098;49.448;7.904;2023-06-26T00:23:11;7.50;;;6.22;;
46391;SDS011;32098;49.448;7.904;2023-06-26T00:25:39;8.50;;;7.60;;
46391;SDS011;32098;49.448;7.904;2023-06-26T00:28:05;9.80;;;6.65;;
46391;SDS011;32098;49.448;7.904;2023-06-26T00:30:32;8.80;;;7.53;;
46391;SDS011;32098;49.448;7.904;2023-06-26T00:32:58;8.10;;;6.63;;
46391;SDS011;32098;49.448;7.904;2023-06-26T00:35:25;7.63;;;6.78;;
46391;SDS011;32098;49.448;7.904;2023-06-26T00:37:51;8.02;;;7.10;;
46391;SDS011;32098;49.448;7.904;2023-06-26T00:40:18;7.57;;;6.75;;
46391;SDS011;32098;49.448;7.904;2023-06-26T00:42:45;7.95;;;7.13;;
46391;SDS011;32098;49.448;7.904;2023-06-26T00:45:13;9.35;;;7.38;;
46391;SDS011;32098;49.448;7.904;2023-06-26T00:47:40;8.38;;;6.88;;
46391;SDS011;32098;49.448;7.904;2023-06-26T00:50:07;9.35;;;7.07;;
46391;SDS011;32098;49.448;7.904;2023-06-26T00:52:34;7.70;;;6.90;;
46391;SDS011;32098;49.448;7.904;2023-06-26T00:55:01;7.93;;;7.07;;
46391;SDS011;32098;49.448;7.904;2023-06-26T00:57:28;7.95;;;7.15;;
46391;SDS011;32098;49.448;7.904;2023-06-26T00:59:56;8.48;;;7.07;;
46391;SDS011;32098;49.448;7.904;2023-06-26T01:02:23;8.10;;;6.80;;
46391;SDS011;32098;49.448;7.904;2023-06-26T01:04:50;7.85;;;6.97;;
46391;SDS011;32098;49.448;7.904;2023-06-26T01:07:18;9.02;;;7.28;;
46391;SDS011;32098;49.448;7.904;2023-06-26T01:09:47;7.35;;;6.40;;
46391;SDS011;32098;49.448;7.904;2023-06-26T01:12:14;8.18;;;7.03;;
46391;SDS011;32098;49.448;7.904;2023-06-26T01:14:41;7.60;;;6.78;;
46391;SDS011;32098;49.448;7.904;2023-06-26T01:17:08;7.65;;;6.93;;
46391;SDS011;32098;49.448;7.904;2023-06-26T01:19:41;8.05;;;6.97;;
46391;SDS011;32098;49.448;7.904;2023-06-26T01:22:14;7.18;;;6.35;;
46391;SDS011;32098;49.448;7.904;2023-06-26T01:27:36;7.80;;;6.97;;
46391;SDS011;32098;49.448;7.904;2023-06-26T01:30:04;8.27;;;6.90;;
46391;SDS011;32098;49.448;7.904;2023-06-26T01:32:34;9.23;;;7.63;;
46391;SDS011;32098;49.448;7.904;2023-06-26T01:35:01;8.32;;;7.40;;
46391;SDS011;32098;49.448;7.904;2023-06-26T01:37:29;8.48;;;7.57;;
46391;SDS011;32098;49.448;7.904;2023-06-26T01:39:55;8.48;;;7.00;;
46391;SDS011;32098;49.448;7.904;2023-06-26T01:42:21;8.73;;;7.22;;
46391;SDS011;32098;49.448;7.904;2023-06-26T01:44:48;7.72;;;7.00;;
46391;SDS011;32098;49.448;7.904;2023-06-26T01:47:16;8.30;;;7.40;;
46391;SDS011;32098;49.448;7.904;2023-06-26T01:52:35;8.75;;;7.63;;
46391;SDS011;32098;49.448;7.904;2023-06-26T01:57:56;8.55;;;7.15;;
46391;SDS011;32098;49.448;7.904;2023-06-26T02:00:24;10.95;;;7.35;;
46391;SDS011;32098;49.448;7.904;2023-06-26T02:02:52;9.07;;;7.45;;
46391;SDS011;32098;49.448;7.904;2023-06-26T02:05:18;9.20;;;7.63;;
46391;SDS011;32098;49.448;7.904;2023-06-26T02:07:45;7.95;;;7.13;;
46391;SDS011;32098;49.448;7.904;2023-06-26T02:10:12;7.95;;;6.88;;
46391;SDS011;32098;49.448;7.904;2023-06-26T02:12:38;9.23;;;7.10;;
46391;SDS011;32098;49.448;7.904;2023-06-26T02:15:06;7.80;;;6.80;;
46391;SDS011;32098;49.448;7.904;2023-06-26T02:17:33;8.05;;;7.10;;
46391;SDS011;32098;49.448;7.904;2023-06-26T02:20:00;8.02;;;7.22;;
46391;SDS011;32098;49.448;7.904;2023-06-26T02:22:26;8.23;;;7.38;;
46391;SDS011;32098;49.448;7.904;2023-06-26T02:24:54;7.75;;;6.75;;
46391;SDS011;32098;49.448;7.904;2023-06-26T02:27:21;8.32;;;7.43;;
46391;SDS011;32098;49.448;7.904;2023-06-26T02:29:47;8.27;;;7.25;;
46391;SDS011;32098;49.448;7.904;2023-06-26T02:32:14;7.82;;;7.03;;
46391;SDS011;32098;49.448;7.904;2023-06-26T02:34:41;8.52;;;7.18;;
46391;SDS011;32098;49.448;7.904;2023-06-26T02:37:07;8.95;;;7.15;;
46391;SDS011;32098;49.448;7.904;2023-06-26T02:39:34;9.45;;;7.53;;
46391;SDS011;32098;49.448;7.904;2023-06-26T02:42:01;8.48;;;7.32;;
46391;SDS011;32098;49.448;7.904;2023-06-26T02:44:27;8.60;;;7.70;;
46391;SDS011;32098;49.448;7.904;2023-06-26T02:46:54;9.05;;;7.63;;
46391;SDS011;32098;49.448;7.904;2023-06-26T02:49:21;8.35;;;7.35;;
46391;SDS011;32098;49.448;7.904;2023-06-26T02:51:49;8.63;;;7.55;;
46391;SDS011;32098;49.448;7.904;2023-06-26T02:54:22;8.57;;;7.68;;
46391;SDS011;32098;49.448;7.904;2023-06-26T02:56:53;8.43;;;7.57;;
46391;SDS011;32098;49.448;7.904;2023-06-26T02:59:24;9.13;;;7.70;;
46391;SDS011;32098;49.448;7.904;2023-06-26T03:01:52;7.95;;;7.15;;
46391;SDS011;32098;49.448;7.904;2023-06-26T03:04:21;12.60;;;7.35;;
46391;SDS011;32098;49.448;7.904;2023-06-26T03:06:48;8.73;;;7.82;;
46391;SDS011;32098;49.448;7.904;2023-06-26T03:09:15;9.48;;;7.95;;
46391;SDS011;32098;49.448;7.904;2023-06-26T03:11:42;9.63;;;7.55;;
46391;SDS011;32098;49.448;7.904;2023-06-26T03:14:10;9.02;;;7.32;;
46391;SDS011;32098;49.448;7.904;2023-06-26T03:16:37;9.05;;;8.07;;
46391;SDS011;32098;49.448;7.904;2023-06-26T03:19:04;8.50;;;7.63;;
46391;SDS011;32098;49.448;7.904;2023-06-26T03:21:41;8.50;;;7.43;;
46391;SDS011;32098;49.448;7.904;2023-06-26T03:24:08;8.63;;;7.70;;
46391;SDS011;32098;49.448;7.904;2023-06-26T03:26:35;8.23;;;7.38;;
46391;SDS011;32098;49.448;7.904;2023-06-26T03:29:02;8.80;;;7.90;;
46391;SDS011;32098;49.448;7.904;2023-06-26T03:31:29;10.43;;;8.13;;
46391;SDS011;32098;49.448;7.904;2023-06-26T03:33:56;8.90;;;8.00;;
46391;SDS011;32098;49.448;7.904;2023-06-26T03:36:24;9.43;;;8.00;;
46391;SDS011;32098;49.448;7.904;2023-06-26T03:38:50;8.55;;;7.13;;
46391;SDS011;32098;49.448;7.904;2023-06-26T03:41:19;10.18;;;8.10;;
46391;SDS011;32098;49.448;7.904;2023-06-26T03:43:46;9.40;;;8.10;;
46391;SDS011;32098;49.448;7.904;2023-06-26T03:46:19;10.63;;;8.45;;
46391;SDS011;32098;49.448;7.904;2023-06-26T03:48:46;9.50;;;7.97;;
46391;SDS011;32098;49.448;7.904;2023-06-26T03:51:13;9.40;;;7.47;;
46391;SDS011;32098;49.448;7.904;2023-06-26T03:53:39;8.70;;;7.75;;
46391;SDS011;32098;49.448;7.904;2023-06-26T03:56:06;12.88;;;7.65;;
46391;SDS011;32098;49.448;7.904;2023-06-26T03:58:32;8.75;;;7.82;;
46391;SDS011;32098;49.448;7.904;2023-06-26T04:00:59;9.15;;;8.13;;
46391;SDS011;32098;49.448;7.904;2023-06-26T04:03:26;9.73;;;8.32;;
46391;SDS011;32098;49.448;7.904;2023-06-26T04:05:53;8.88;;;7.80;;
46391;SDS011;32098;49.448;7.904;2023-06-26T04:08:19;8.43;;;7.50;;
46391;SDS011;32098;49.448;7.904;2023-06-26T04:10:46;8.80;;;7.90;;
46391;SDS011;32098;49.448;7.904;2023-06-26T04:13:14;8.95;;;7.72;;
46391;SDS011;32098;49.448;7.904;2023-06-26T04:15:40;9.57;;;8.02;;
46391;SDS011;32098;49.448;7.904;2023-06-26T04:18:07;10.45;;;8.18;;
46391;SDS011;32098;49.448;7.904;2023-06-26T04:20:38;8.20;;;7.32;;
46391;SDS011;32098;49.448;7.904;2023-06-26T04:23:07;10.45;;;7.65;;
46391;SDS011;32098;49.448;7.904;2023-06-26T04:25:33;9.52;;;7.40;;
46391;SDS011;32098;49.448;7.904;2023-06-26T04:28:00;9.35;;;7.43;;
46391;SDS011;32098;49.448;7.904;2023-06-26T04:30:26;9.50;;;7.47;;
46391;SDS011;32098;49.448;7.904;2023-06-26T04:32:53;8.27;;;7.40;;
46391;SDS011;32098;49.448;7.904;2023-06-26T04:35:19;9.65;;;8.23;;
46391;SDS011;32098;49.448;7.904;2023-06-26T04:37:47;8.63;;;7.70;;
46391;SDS011;32098;49.448;7.904;2023-06-26T04:40:14;8.20;;;7.40;;
46391;SDS011;32098;49.448;7.904;2023-06-26T04:42:41;10.82;;;7.38;;
46391;SDS011;32098;49.448;7.904;2023-06-26T04:45:07;8.68;;;7.63;;
46391;SDS011;32098;49.448;7.904;2023-06-26T04:47:34;8.50;;;7.53;;
46391;SDS011;32098;49.448;7.904;2023-06-26T04:50:00;7.80;;;7.03;;
46391;SDS011;32098;49.448;7.904;2023-06-26T04:52:27;9.63;;;7.38;;
46391;SDS011;32098;49.448;7.904;2023-06-26T04:54:53;8.50;;;7.55;;
46391;SDS011;32098;49.448;7.904;2023-06-26T04:57:20;8.52;;;7.30;;
46391;SDS011;32098;49.448;7.904;2023-06-26T04:59:46;8.63;;;7.72;;
46391;SDS011;32098;49.448;7.904;2023-06-26T05:02:13;7.57;;;6.88;;
46391;SDS011;32098;49.448;7.904;2023-06-26T05:04:41;8.73;;;7.50;;
46391;SDS011;32098;49.448;7.904;2023-06-26T05:07:08;7.95;;;7.13;;
46391;SDS011;32098;49.448;7.904;2023-06-26T05:09:35;7.90;;;7.10;;
46391;SDS011;32098;49.448;7.904;2023-06-26T05:12:02;8.02;;;7.22;;
46391;SDS011;32098;49.448;7.904;2023-06-26T05:14:29;8.07;;;7.28;;
46391;SDS011;32098;49.448;7.904;2023-06-26T05:16:55;6.85;;;6.13;;
46391;SDS011;32098;49.448;7.904;2023-06-26T05:19:22;9.82;;;6.47;;
46391;SDS011;32098;49.448;7.904;2023-06-26T05:21:48;8.82;;;6.93;;
46391;SDS011;32098;49.448;7.904;2023-06-26T05:24:16;16.05;;;6.95;;
46391;SDS011;32098;49.448;7.904;2023-06-26T05:26:47;7.78;;;6.78;;
46391;SDS011;32098;49.448;7.904;2023-06-26T05:29:14;9.32;;;7.00;;
46391;SDS011;32098;49.448;7.904;2023-06-26T05:31:41;7.70;;;6.85;;
46391;SDS011;32098;49.448;7.904;2023-06-26T05:34:11;7.72;;;7.03;;
46391;SDS011;32098;49.448;7.904;2023-06-26T05:36:38;7.93;;;7.22;;
46391;SDS011;32098;49.448;7.904;2023-06-26T05:39:05;7.47;;;6.78;;
46391;SDS011;32098;49.448;7.904;2023-06-26T05:41:32;7.50;;;6.70;;
46391;SDS011;32098;49.448;7.904;2023-06-26T05:43:59;8.77;;;7.20;;
46391;SDS011;32098;49.448;7.904;2023-06-26T05:46:25;10.30;;;7.25;;
46391;SDS011;32098;49.448;7.904;2023-06-26T05:48:52;10.38;;;7.07;;
46391;SDS011;32098;49.448;7.904;2023-06-26T05:51:18;7.65;;;6.85;;
46391;SDS011;32098;49.448;7.904;2023-06-26T05:53:45;9.35;;;6.78;;
46391;SDS011;32098;49.448;7.904;2023-06-26T05:56:12;7.43;;;6.72;;
46391;SDS011;32098;49.448;7.904;2023-06-26T05:58:39;7.95;;;7.15;;
46391;SDS011;32098;49.448;7.904;2023-06-26T06:01:08;7.55;;;6.85;;
46391;SDS011;32098;49.448;7.904;2023-06-26T06:03:34;7.80;;;6.97;;
46391;SDS011;32098;49.448;7.904;2023-06-26T06:06:01;7.63;;;6.93;;
46391;SDS011;32098;49.448;7.904;2023-06-26T06:08:28;7.28;;;6.50;;
46391;SDS011;32098;49.448;7.904;2023-06-26T06:10:54;7.55;;;6.75;;
46391;SDS011;32098;49.448;7.904;2023-06-26T06:13:21;8.50;;;7.03;;
46391;SDS011;32098;49.448;7.904;2023-06-26T06:15:47;8.77;;;6.93;;
46391;SDS011;32098;49.448;7.904;2023-06-26T06:18:14;8.38;;;7.05;;
46391;SDS011;32098;49.448;7.904;2023-06-26T06:20:40;7.75;;;7.03;;
46391;SDS011;32098;49.448;7.904;2023-06-26T06:23:07;7.60;;;6.88;;
46391;SDS011;32098;49.448;7.904;2023-06-26T06:25:34;7.47;;;6.82;;
46391;SDS011;32098;49.448;7.904;2023-06-26T06:28:00;7.65;;;6.95;;
46391;SDS011;32098;49.448;7.904;2023-06-26T06:30:27;7.93;;;7.13;;
46391;SDS011;32098;49.448;7.904;2023-06-26T06:33:09;6.97;;;6.38;;
46391;SDS011;32098;49.448;7.904;2023-06-26T06:35:35;6.63;;;6.03;;
46391;SDS011;32098;49.448;7.904;2023-06-26T06:38:02;6.88;;;6.07;;
46391;SDS011;32098;49.448;7.904;2023-06-26T06:40:29;7.25;;;6.40;;
46391;SDS011;32098;49.448;7.904;2023-06-26T06:42:55;9.07;;;6.35;;
46391;SDS011;32098;49.448;7.904;2023-06-26T06:45:22;6.50;;;5.90;;
46391;SDS011;32098;49.448;7.904;2023-06-26T06:47:48;7.13;;;6.53;;
46391;SDS011;32098;49.448;7.904;2023-06-26T06:50:15;6.57;;;5.85;;
46391;SDS011;32098;49.448;7.904;2023-06-26T06:52:42;6.55;;;5.95;;
46391;SDS011;32098;49.448;7.904;2023-06-26T06:55:09;6.50;;;5.90;;
46391;SDS011;32098;49.448;7.904;2023-06-26T06:57:36;6.70;;;6.00;;
46391;SDS011;32098;49.448;7.904;2023-06-26T07:00:05;6.72;;;6.03;;
46391;SDS011;32098;49.448;7.904;2023-06-26T07:02:37;6.93;;;6.22;;
46391;SDS011;32098;49.448;7.904;2023-06-26T07:05:04;7.00;;;6.40;;
46391;SDS011;32098;49.448;7.904;2023-06-26T07:07:32;6.43;;;5.78;;
46391;SDS011;32098;49.448;7.904;2023-06-26T07:10:04;5.60;;;5.10;;
46391;SDS011;32098;49.448;7.904;2023-06-26T07:12:32;5.72;;;5.22;;
46391;SDS011;32098;49.448;7.904;2023-06-26T07:15:03;5.80;;;5.30;;
46391;SDS011;32098;49.448;7.904;2023-06-26T07:17:31;5.50;;;5.00;;
46391;SDS011;32098;49.448;7.904;2023-06-26T07:19:59;5.90;;;5.40;;
46391;SDS011;32098;49.448;7.904;2023-06-26T07:22:26;6.50;;;5.68;;
46391;SDS011;32098;49.448;7.904;2023-06-26T07:24:53;5.85;;;5.35;;
46391;SDS011;32098;49.448;7.904;2023-06-26T07:27:20;6.35;;;5.63;;
46391;SDS011;32098;49.448;7.904;2023-06-26T07:29:46;8.77;;;6.07;;
46391;SDS011;32098;49.448;7.904;2023-06-26T07:32:13;6.45;;;5.65;;
46391;SDS011;32098;49.448;7.904;2023-06-26T07:34:41;6.18;;;5.57;;
46391;SDS011;32098;49.448;7.904;2023-06-26T07:37:07;6.40;;;5.80;;
46391;SDS011;32098;49.448;7.904;2023-06-26T07:39:34;6.57;;;5.68;;
46391;SDS011;32098;49.448;7.904;2023-06-26T07:42:00;5.65;;;5.15;;
46391;SDS011;32098;49.448;7.904;2023-06-26T07:44:27;7.35;;;6.00;;
46391;SDS011;32098;49.448;7.904;2023-06-26T07:46:54;6.82;;;5.93;;
46391;SDS011;32098;49.448;7.904;2023-06-26T07:49:20;7.13;;;5.43;;
46391;SDS011;32098;49.448;7.904;2023-06-26T07:51:47;8.38;;;5.82;;
46391;SDS011;32098;49.448;7.904;2023-06-26T07:54:14;5.82;;;5.15;;
46391;SDS011;32098;49.448;7.904;2023-06-26T07:59:24;5.90;;;5.40;;
46391;SDS011;32098;49.448;7.904;2023-06-26T08:01:52;5.95;;;5.45;;
46391;SDS011;32098;49.448;7.904;2023-06-26T08:04:20;6.03;;;5.53;;
46391;SDS011;32098;49.448;7.904;2023-06-26T08:06:48;6.10;;;5.60;;
46391;SDS011;32098;49.448;7.904;2023-06-26T08:09:17;7.25;;;5.60;;
46391;SDS011;32098;49.448;7.904;2023-06-26T08:11:45;8.20;;;6.10;;
46391;SDS011;32098;49.448;7.904;2023-06-26T08:14:12;6.25;;;5.65;;
46391;SDS011;32098;49.448;7.904;2023-06-26T08:16:39;6.43;;;5.82;;
46391;SDS011;32098;49.448;7.904;2023-06-26T08:19:07;6.53;;;5.93;;
46391;SDS011;32098;49.448;7.904;2023-06-26T08:21:34;6.78;;;6.07;;
46391;SDS011;32098;49.448;7.904;2023-06-26T08:24:00;6.45;;;5.82;;
46391;SDS011;32098;49.448;7.904;2023-06-26T08:26:27;7.30;;;5.97;;
46391;SDS011;32098;49.448;7.904;2023-06-26T08:28:53;6.43;;;5.88;;
46391;SDS011;32098;49.448;7.904;2023-06-26T08:31:21;8.20;;;6.32;;
46391;SDS011;32098;49.448;7.904;2023-06-26T08:33:47;8.05;;;6.35;;
46391;SDS011;32098;49.448;7.904;2023-06-26T08:36:14;6.72;;;6.07;;
46391;SDS011;32098;49.448;7.904;2023-06-26T08:38:40;7.25;;;6.55;;
46391;SDS011;32098;49.448;7.904;2023-06-26T08:41:07;7.00;;;6.30;;
46391;SDS011;32098;49.448;7.904;2023-06-26T08:43:35;7.03;;;6.32;;
46391;SDS011;32098;49.448;7.904;2023-06-26T08:46:02;7.07;;;6.32;;
46391;SDS011;32098;49.448;7.904;2023-06-26T08:48:29;8.43;;;7.15;;
46391;SDS011;32098;49.448;7.904;2023-06-26T08:50:58;7.25;;;6.65;;
46391;SDS011;32098;49.448;7.904;2023-06-26T08:53:29;7.13;;;6.43;;
46391;SDS011;32098;49.448;7.904;2023-06-26T08:56:05;7.43;;;6.55;;
46391;SDS011;32098;49.448;7.904;2023-06-26T08:58:33;6.88;;;6.28;;
46391;SDS011;32098;49.448;7.904;2023-06-26T09:01:02;9.07;;;6.93;;
46391;SDS011;32098;49.448;7.904;2023-06-26T09:03:30;7.35;;;6.72;;
46391;SDS011;32098;49.448;7.904;2023-06-26T09:05:58;7.82;;;6.65;;
46391;SDS011;32098;49.448;7.904;2023-06-26T09:08:25;7.75;;;7.05;;
46391;SDS011;32098;49.448;7.904;2023-06-26T09:10:51;7.93;;;6.95;;
46391;SDS011;32098;49.448;7.904;2023-06-26T09:13:18;7.18;;;6.38;;
46391;SDS011;32098;49.448;7.904;2023-06-26T09:15:55;8.55;;;6.25;;
46391;SDS011;32098;49.448;7.904;2023-06-26T09:18:22;6.47;;;5.90;;
46391;SDS011;32098;49.448;7.904;2023-06-26T09:20:49;6.65;;;6.05;;
46391;SDS011;32098;49.448;7.904;2023-06-26T09:23:16;6.90;;;5.95;;
46391;SDS011;32098;49.448;7.904;2023-06-26T09:25:43;7.05;;;6.35;;
46391;SDS011;32098;49.448;7.904;2023-06-26T09:28:11;7.03;;;6.25;;
46391;SDS011;32098;49.448;7.904;2023-06-26T09:30:38;6.50;;;5.90;;
46391;SDS011;32098;49.448;7.904;2023-06-26T09:33:14;6.57;;;6.00;;
46391;SDS011;32098;49.448;7.904;2023-06-26T09:35:43;7.47;;;6.22;;
46391;SDS011;32098;49.448;7.904;2023-06-26T09:38:11;7.32;;;6.00;;
46391;SDS011;32098;49.448;7.904;2023-06-26T09:40:38;6.32;;;5.55;;
46391;SDS011;32098;49.448;7.904;2023-06-26T09:43:07;6.50;;;5.88;;
46391;SDS011;32098;49.448;7.904;2023-06-26T09:45:39;6.40;;;5.80;;
46391;SDS011;32098;49.448;7.904;2023-06-26T09:48:06;6.85;;;5.60;;
46391;SDS011;32098;49.448;7.904;2023-06-26T09:50:35;5.60;;;5.20;;
46391;SDS011;32098;49.448;7.904;2023-06-26T09:53:10;6.38;;;5.50;;
46391;SDS011;32098;49.448;7.904;2023-06-26T09:55:41;6.03;;;5.30;;
46391;SDS011;32098;49.448;7.904;2023-06-26T09:58:10;7.72;;;5.50;;
46391;SDS011;32098;49.448;7.904;2023-06-26T10:00:43;6.15;;;5.55;;
46391;SDS011;32098;49.448;7.904;2023-06-26T10:03:10;7.72;;;5.45;;
46391;SDS011;32098;49.448;7.904;2023-06-26T10:05:39;8.50;;;5.68;;
46391;SDS011;32098;49.448;7.904;2023-06-26T10:08:06;5.85;;;5.28;;
46391;SDS011;32098;49.448;7.904;2023-06-26T10:10:35;6.18;;;5.53;;
46391;SDS011;32098;49.448;7.904;2023-06-26T10:13:08;10.80;;;5.60;;
46391;SDS011;32098;49.448;7.904;2023-06-26T10:15:41;5.88;;;5.28;;
46391;SDS011;32098;49.448;7.904;2023-06-26T10:18:11;6.20;;;5.55;;
46391;SDS011;32098;49.448;7.904;2023-06-26T10:20:39;6.93;;;6.03;;
46391;SDS011;32098;49.448;7.904;2023-06-26T10:23:07;9.05;;;6.00;;
46391;SDS011;32098;49.448;7.904;2023-06-26T10:25:36;6.38;;;5.78;;
46391;SDS011;32098;49.448;7.904;2023-06-26T10:28:07;6.57;;;5.60;;
46391;SDS011;32098;49.448;7.904;2023-06-26T10:30:36;6.00;;;5.40;;
46391;SDS011;32098;49.448;7.904;2023-06-26T10:33:05;5.85;;;5.15;;
46391;SDS011;32098;49.448;7.904;2023-06-26T10:35:40;6.90;;;5.55;;
46391;SDS011;32098;49.448;7.904;2023-06-26T10:38:08;6.65;;;5.30;;
46391;SDS011;32098;49.448;7.904;2023-06-26T10:40:47;8.07;;;5.28;;
46391;SDS011;32098;49.448;7.904;2023-06-26T10:43:16;7.97;;;5.18;;
46391;SDS011;32098;49.448;7.904;2023-06-26T10:45:46;6.10;;;5.45;;
46391;SDS011;32098;49.448;7.904;2023-06-26T10:48:18;6.65;;;5.05;;
46391;SDS011;32098;49.448;7.904;2023-06-26T10:50:48;5.32;;;4.82;;
46391;SDS011;32098;49.448;7.904;2023-06-26T10:55:56;6.53;;;4.95;;
46391;SDS011;32098;49.448;7.904;2023-06-26T10:59:00;5.20;;;4.70;;
46391;SDS011;32098;49.448;7.904;2023-06-26T11:01:40;5.90;;;4.88;;
46391;SDS011;32098;49.448;7.904;2023-06-26T11:04:08;7.85;;;5.38;;
46391;SDS011;32098;49.448;7.904;2023-06-26T11:06:37;6.45;;;5.70;;
46391;SDS011;32098;49.448;7.904;2023-06-26T11:09:08;6.10;;;5.50;;
46391;SDS011;32098;49.448;7.904;2023-06-26T11:14:18;6.28;;;5.32;;
46391;SDS011;32098;49.448;7.904;2023-06-26T11:16:49;5.75;;;4.78;;
46391;SDS011;32098;49.448;7.904;2023-06-26T11:19:19;5.55;;;4.88;;
46391;SDS011;32098;49.448;7.904;2023-06-26T11:21:46;5.82;;;4.93;;
46391;SDS011;32098;49.448;7.904;2023-06-26T11:24:13;9.00;;;5.78;;
46391;SDS011;32098;49.448;7.904;2023-06-26T11:26:40;6.82;;;5.90;;
46391;SDS011;32098;49.448;7.904;2023-06-26T11:29:08;7.40;;;5.47;;
46391;SDS011;32098;49.448;7.904;2023-06-26T11:31:36;7.93;;;5.38;;
46391;SDS011;32098;49.448;7.904;2023-06-26T11:34:05;5.25;;;4.75;;
46391;SDS011;32098;49.448;7.904;2023-06-26T11:36:38;4.75;;;4.35;;
46391;SDS011;32098;49.448;7.904;2023-06-26T11:39:09;5.63;;;4.78;;
46391;SDS011;32098;49.448;7.904;2023-06-26T11:41:37;8.13;;;4.85;;
46391;SDS011;32098;49.448;7.904;2023-06-26T11:44:05;7.30;;;4.93;;
46391;SDS011;32098;49.448;7.904;2023-06-26T11:46:34;6.13;;;5.53;;
46391;SDS011;32098;49.448;7.904;2023-06-26T11:49:04;6.57;;;5.97;;
46391;SDS011;32098;49.448;7.904;2023-06-26T11:51:32;6.90;;;6.18;;
46391;SDS011;32098;49.448;7.904;2023-06-26T11:54:00;9.57;;;6.13;;
46391;SDS011;32098;49.448;7.904;2023-06-26T11:56:29;6.65;;;5.88;;
46391;SDS011;32098;49.448;7.904;2023-06-26T12:01:24;9.73;;;7.57;;
46391;SDS011;32098;49.448;7.904;2023-06-26T12:03:51;9.65;;;6.80;;
46391;SDS011;32098;49.448;7.904;2023-06-26T12:06:20;7.47;;;6.53;;
46391;SDS011;32098;49.448;7.904;2023-06-26T12:08:47;7.60;;;6.80;;
46391;SDS011;32098;49.448;7.904;2023-06-26T12:11:13;7.82;;;5.80;;
46391;SDS011;32098;49.448;7.904;2023-06-26T12:13:40;6.03;;;5.10;;
46391;SDS011;32098;49.448;7.904;2023-06-26T12:16:07;7.30;;;5.85;;
46391;SDS011;32098;49.448;7.904;2023-06-26T12:18:34;7.72;;;5.00;;
46391;SDS011;32098;49.448;7.904;2023-06-26T12:21:02;7.53;;;5.47;;
46391;SDS011;32098;49.448;7.904;2023-06-26T12:23:32;7.63;;;4.80;;
46391;SDS011;32098;49.448;7.904;2023-06-26T12:26:15;7.40;;;4.70;;
46391;SDS011;32098;49.448;7.904;2023-06-26T12:28:44;4.85;;;4.25;;
46391;SDS011;32098;49.448;7.904;2023-06-26T12:31:17;8.02;;;4.30;;
46391;SDS011;32098;49.448;7.904;2023-06-26T12:33:46;4.72;;;3.80;;
46391;SDS011;32098;49.448;7.904;2023-06-26T12:36:13;6.68;;;3.47;;
46391;SDS011;32098;49.448;7.904;2023-06-26T12:38:41;6.15;;;3.70;;
46391;SDS011;32098;49.448;7.904;2023-06-26T12:41:13;4.90;;;3.58;;
46391;SDS011;32098;49.448;7.904;2023-06-26T12:43:41;4.15;;;3.10;;
46391;SDS011;32098;49.448;7.904;2023-06-26T12:46:08;5.85;;;3.20;;
46391;SDS011;32098;49.448;7.904;2023-06-26T12:48:36;5.85;;;2.85;;
46391;SDS011;32098;49.448;7.904;2023-06-26T12:51:08;5.05;;;2.60;;
46391;SDS011;32098;49.448;7.904;2023-06-26T12:53:39;4.10;;;2.35;;
46391;SDS011;32098;49.448;7.904;2023-06-26T12:56:06;4.30;;;2.40;;
46391;SDS011;32098;49.448;7.904;2023-06-26T12:58:34;4.13;;;2.08;;
46391;SDS011;32098;49.448;7.904;2023-06-26T13:01:04;3.58;;;2.10;;
46391;SDS011;32098;49.448;7.904;2023-06-26T13:03:41;3.33;;;2.15;;
46391;SDS011;32098;49.448;7.904;2023-06-26T13:06:08;4.20;;;2.47;;
46391;SDS011;32098;49.448;7.904;2023-06-26T13:08:34;3.67;;;2.00;;
46391;SDS011;32098;49.448;7.904;2023-06-26T13:11:01;5.13;;;2.10;;
46391;SDS011;32098;49.448;7.904;2023-06-26T13:13:28;5.60;;;2.17;;
46391;SDS011;32098;49.448;7.904;2023-06-26T13:15:55;4.22;;;2.05;;
46391;SDS011;32098;49.448;7.904;2023-06-26T13:18:21;4.07;;;2.28;;
46391;SDS011;32098;49.448;7.904;2023-06-26T13:20:48;3.13;;;1.83;;
46391;SDS011;32098;49.448;7.904;2023-06-26T13:23:14;3.60;;;1.98;;
46391;SDS011;32098;49.448;7.904;2023-06-26T13:25:41;2.95;;;2.20;;
46391;SDS011;32098;49.448;7.904;2023-06-26T13:28:08;5.22;;;1.83;;
46391;SDS011;32098;49.448;7.904;2023-06-26T13:30:35;4.47;;;1.90;;
46391;SDS011;32098;49.448;7.904;2023-06-26T13:33:02;3.42;;;1.80;;
46391;SDS011;32098;49.448;7.904;2023-06-26T13:35:29;3.58;;;2.05;;
46391;SDS011;32098;49.448;7.904;2023-06-26T13:37:55;3.63;;;1.88;;
46391;SDS011;32098;49.448;7.904;2023-06-26T13:40:22;3.50;;;1.80;;
46391;SDS011;32098;49.448;7.904;2023-06-26T13:42:48;3.05;;;1.83;;
46391;SDS011;32098;49.448;7.904;2023-06-26T13:45:15;5.43;;;2.10;;
46391;SDS011;32098;49.448;7.904;2023-06-26T13:47:56;4.85;;;1.83;;
46391;SDS011;32098;49.448;7.904;2023-06-26T13:50:23;2.03;;;1.80;;
46391;SDS011;32098;49.448;7.904;2023-06-26T13:52:50;5.20;;;2.05;;
46391;SDS011;32098;49.448;7.904;2023-06-26T13:55:17;4.68;;;2.00;;
46391;SDS011;32098;49.448;7.904;2023-06-26T13:57:43;2.90;;;1.52;;
46391;SDS011;32098;49.448;7.904;2023-06-26T14:00:10;3.85;;;2.17;;
46391;SDS011;32098;49.448;7.904;2023-06-26T14:02:38;4.45;;;2.00;;
46391;SDS011;32098;49.448;7.904;2023-06-26T14:05:05;3.92;;;1.80;;
46391;SDS011;32098;49.448;7.904;2023-06-26T14:07:32;4.65;;;1.90;;
46391;SDS011;32098;49.448;7.904;2023-06-26T14:09:58;2.00;;;1.80;;
46391;SDS011;32098;49.448;7.904;2023-06-26T14:12:25;4.15;;;2.15;;
46391;SDS011;32098;49.448;7.904;2023-06-26T14:14:52;1.90;;;1.60;;
46391;SDS011;32098;49.448;7.904;2023-06-26T14:17:18;5.43;;;2.08;;
46391;SDS011;32098;49.448;7.904;2023-06-26T14:19:45;2.97;;;1.98;;
46391;SDS011;32098;49.448;7.904;2023-06-26T14:22:12;4.22;;;2.03;;
46391;SDS011;32098;49.448;7.904;2023-06-26T14:24:39;6.03;;;2.22;;
46391;SDS011;32098;49.448;7.904;2023-06-26T14:27:05;2.42;;;1.70;;
46391;SDS011;32098;49.448;7.904;2023-06-26T14:29:32;3.08;;;1.77;;
46391;SDS011;32098;49.448;7.904;2023-06-26T14:31:58;3.63;;;1.67;;
46391;SDS011;32098;49.448;7.904;2023-06-26T14:34:25;3.70;;;1.73;;
46391;SDS011;32098;49.448;7.904;2023-06-26T14:36:51;3.08;;;1.75;;
46391;SDS011;32098;49.448;7.904;2023-06-26T14:39:18;2.72;;;1.70;;
46391;SDS011;32098;49.448;7.904;2023-06-26T14:41:45;2.90;;;1.70;;
46391;SDS011;32098;49.448;7.904;2023-06-26T14:44:14;2.45;;;1.80;;
46391;SDS011;32098;49.448;7.904;2023-06-26T14:46:41;2.65;;;1.52;;
46391;SDS011;32098;49.448;7.904;2023-06-26T14:49:08;6.15;;;1.90;;
46391;SDS011;32098;49.448;7.904;2023-06-26T14:51:35;6.45;;;1.50;;
46391;SDS011;32098;49.448;7.904;2023-06-26T14:54:01;3.72;;;1.35;;
46391;SDS011;32098;49.448;7.904;2023-06-26T14:56:29;4.75;;;1.90;;
46391;SDS011;32098;49.448;7.904;2023-06-26T14:58:55;3.28;;;1.67;;
46391;SDS011;32098;49.448;7.904;2023-06-26T15:01:22;3.92;;;1.65;;
46391;SDS011;32098;49.448;7.904;2023-06-26T15:03:48;3.08;;;1.50;;
46391;SDS011;32098;49.448;7.904;2023-06-26T15:06:15;3.45;;;1.83;;
46391;SDS011;32098;49.448;7.904;2023-06-26T15:08:42;3.63;;;1.50;;
46391;SDS011;32098;49.448;7.904;2023-06-26T15:11:08;5.63;;;2.03;;